Time;durP1;ratioP1;P1;durP2;ratioP2;P2;SDS_P1;SDS_P2;PMS_P1;PMS_P2;Temp;Humidity;BMP_temperature;BMP_pressure;BME280_temperature;BME280_humidity;BME280_pressure;Samples;Min_cycle;Max_cycle;Signal;HPM_P1;HPM_P2
2022/03/27 00:01:31;;;;;;;52.95;23.83;;;;;;;;;;5032063;28;20104;-63
2022/03/27 00:03:57;;;;;;;63.60;28.48;;;;;;;;;;5031885;28;20176;-64
2022/03/27 00:06:23;;;;;;;70.90;33.28;;;;;;;;;;5030999;28;20036;-60
2022/03/27 00:08:48;;;;;;;44.35;21.60;;;;;;;;;;5012436;28;20053;-60
2022/03/27 00:11:27;;;;;;;62.67;21.90;;;;;;;;;;5014820;28;20038;-61
2022/03/27 00:14:05;;;;;;;49.38;22.60;;;;;;;;;;5031978;28;20025;-63
2022/03/27 00:16:32;;;;;;;51.10;23.45;;;;;;;;;;5031635;28;20159;-63
2022/03/27 00:18:58;;;;;;;62.58;24.52;;;;;;;;;;5032048;28;20053;-63
2022/03/27 00:21:24;;;;;;;62.30;24.63;;;;;;;;;;5031964;28;20108;-63
2022/03/27 00:23:52;;;;;;;88.75;26.52;;;;;;;;;;5031956;28;20160;-62
2022/03/27 00:26:19;;;;;;;66.07;26.33;;;;;;;;;;5031919;28;20029;-60
2022/03/27 00:28:45;;;;;;;61.83;25.20;;;;;;;;;;5034128;28;20047;-60
2022/03/27 00:31:11;;;;;;;59.65;25.40;;;;;;;;;;5035139;28;20112;-62
2022/03/27 00:33:38;;;;;;;108.20;23.33;;;;;;;;;;5035476;28;20025;-64
2022/03/27 00:36:05;;;;;;;107.90;23.85;;;;;;;;;;5035382;28;20025;-63
2022/03/27 00:38:32;;;;;;;86.28;24.35;;;;;;;;;;5035303;28;20034;-64
2022/03/27 00:40:58;;;;;;;86.38;24.73;;;;;;;;;;5035408;28;20390;-61
2022/03/27 00:43:25;;;;;;;96.50;24.65;;;;;;;;;;5035135;28;20033;-63
2022/03/27 00:45:51;;;;;;;104.63;23.73;;;;;;;;;;5035102;28;20029;-63
2022/03/27 00:48:18;;;;;;;63.22;22.50;;;;;;;;;;5035148;28;20037;-63
2022/03/27 00:50:45;;;;;;;47.45;22.40;;;;;;;;;;5017199;28;20395;-61
2022/03/27 00:53:10;;;;;;;39.72;21.13;;;;;;;;;;5035147;28;20029;-62
2022/03/27 00:55:37;;;;;;;39.20;20.67;;;;;;;;;;5035113;28;20036;-63
2022/03/27 00:58:04;;;;;;;45.53;22.25;;;;;;;;;;5034817;28;20178;-63
2022/03/27 01:01:02;;;;;;;44.08;22.40;;;;;;;;;;5034672;28;20433;-63
2022/03/27 01:03:28;;;;;;;51.88;23.00;;;;;;;;;;5034836;28;20544;-60
2022/03/27 01:05:58;;;;;;;51.55;23.08;;;;;;;;;;5034943;28;20026;-63
2022/03/27 01:11:21;;;;;;;60.42;25.33;;;;;;;;;;5017176;28;20415;-59
2022/03/27 01:13:52;;;;;;;58.83;23.63;;;;;;;;;;5034699;28;20117;-61
2022/03/27 01:16:37;;;;;;;46.30;22.10;;;;;;;;;;5034441;28;20517;-62
2022/03/27 01:19:04;;;;;;;42.42;20.38;;;;;;;;;;5034706;28;20029;-63
2022/03/27 01:21:29;;;;;;;42.20;19.92;;;;;;;;;;5034532;28;20034;-63
2022/03/27 01:23:56;;;;;;;46.65;18.65;;;;;;;;;;5034384;28;20048;-63
2022/03/27 01:26:23;;;;;;;40.47;19.13;;;;;;;;;;5034383;28;20033;-60
2022/03/27 01:28:49;;;;;;;42.10;20.00;;;;;;;;;;5034250;28;20046;-63
2022/03/27 01:31:15;;;;;;;36.50;18.33;;;;;;;;;;5034083;28;20025;-60
2022/03/27 01:33:40;;;;;;;35.53;18.10;;;;;;;;;;5034329;28;20021;-62
2022/03/27 01:36:06;;;;;;;39.22;19.10;;;;;;;;;;5034303;28;20021;-62
2022/03/27 01:38:31;;;;;;;37.45;19.27;;;;;;;;;;5033972;28;20490;-60
2022/03/27 01:40:57;;;;;;;35.97;17.35;;;;;;;;;;5033670;28;20030;-60
2022/03/27 01:43:22;;;;;;;38.45;18.95;;;;;;;;;;5034138;28;20061;-63
2022/03/27 01:45:48;;;;;;;41.55;19.13;;;;;;;;;;5034039;28;20030;-62
2022/03/27 01:48:14;;;;;;;33.08;17.35;;;;;;;;;;5034104;28;20053;-60
2022/03/27 01:50:39;;;;;;;33.38;16.95;;;;;;;;;;5034059;28;20030;-63
2022/03/27 01:53:04;;;;;;;31.65;16.70;;;;;;;;;;5034021;28;20025;-62
2022/03/27 01:55:30;;;;;;;33.95;16.15;;;;;;;;;;5034047;28;20060;-61
2022/03/27 01:57:55;;;;;;;33.97;16.10;;;;;;;;;;5033803;28;20037;-62
2022/03/27 02:00:21;;;;;;;32.28;14.50;;;;;;;;;;5033616;28;20030;-60
2022/03/27 02:02:46;;;;;;;31.55;16.52;;;;;;;;;;5033700;28;20053;-64
2022/03/27 02:05:13;;;;;;;32.50;16.20;;;;;;;;;;5033682;28;20494;-63
2022/03/27 02:07:42;;;;;;;30.55;15.95;;;;;;;;;;5022395;28;20045;-61
2022/03/27 02:10:08;;;;;;;32.90;16.20;;;;;;;;;;5013950;28;20018;-61
2022/03/27 02:12:35;;;;;;;32.72;16.50;;;;;;;;;;5026992;28;20025;-61
2022/03/27 02:15:09;;;;;;;30.20;16.75;;;;;;;;;;5033485;28;20045;-61
2022/03/27 02:17:38;;;;;;;35.00;17.50;;;;;;;;;;5033547;28;20029;-60
2022/03/27 02:20:06;;;;;;;31.50;15.15;;;;;;;;;;5033517;28;20463;-60
2022/03/27 02:22:31;;;;;;;30.48;15.30;;;;;;;;;;5033417;28;20033;-63
2022/03/27 02:24:57;;;;;;;24.90;14.40;;;;;;;;;;5033623;28;20025;-61
2022/03/27 02:27:22;;;;;;;33.17;14.27;;;;;;;;;;5033061;28;20084;-63
2022/03/27 02:29:48;;;;;;;28.30;13.85;;;;;;;;;;5033005;28;20042;-60
2022/03/27 02:32:14;;;;;;;26.95;14.77;;;;;;;;;;5033379;28;20100;-60
2022/03/27 02:34:40;;;;;;;24.33;13.80;;;;;;;;;;5033308;28;20032;-61
2022/03/27 02:37:06;;;;;;;23.42;13.75;;;;;;;;;;5033104;28;20025;-64
2022/03/27 02:39:32;;;;;;;22.58;12.23;;;;;;;;;;5033215;28;20029;-62
2022/03/27 02:41:58;;;;;;;25.15;13.35;;;;;;;;;;5032897;28;20498;-62
2022/03/27 02:44:23;;;;;;;28.25;14.27;;;;;;;;;;5033004;28;20025;-60
2022/03/27 02:46:50;;;;;;;22.88;13.05;;;;;;;;;;5032946;28;20054;-62
2022/03/27 02:49:16;;;;;;;23.13;10.65;;;;;;;;;;5032802;28;20431;-62
2022/03/27 02:51:45;;;;;;;27.30;13.13;;;;;;;;;;5032480;28;20080;-61
2022/03/27 02:54:11;;;;;;;23.90;12.10;;;;;;;;;;5032981;28;20025;-61
2022/03/27 02:56:37;;;;;;;24.30;13.40;;;;;;;;;;5032556;28;20061;-61
2022/03/27 02:59:03;;;;;;;24.83;11.85;;;;;;;;;;5032884;28;20040;-63
2022/03/27 03:01:28;;;;;;;26.85;14.07;;;;;;;;;;5032788;28;20074;-63
2022/03/27 03:03:55;;;;;;;31.00;14.27;;;;;;;;;;5032778;28;20383;-62
2022/03/27 03:06:24;;;;;;;28.02;14.40;;;;;;;;;;5031755;28;20033;-63
2022/03/27 03:08:50;;;;;;;24.63;13.15;;;;;;;;;;5012975;28;20029;-62
2022/03/27 03:11:15;;;;;;;29.63;13.98;;;;;;;;;;5014163;28;20391;-60
2022/03/27 03:13:41;;;;;;;26.75;14.18;;;;;;;;;;5032460;28;20030;-61
2022/03/27 03:16:07;;;;;;;28.35;14.23;;;;;;;;;;5021796;28;20070;-60
2022/03/27 03:18:34;;;;;;;22.63;12.48;;;;;;;;;;5020013;28;20035;-60
2022/03/27 03:21:00;;;;;;;26.48;13.43;;;;;;;;;;5020771;28;20081;-60
2022/03/27 03:23:26;;;;;;;27.90;13.93;;;;;;;;;;5027468;28;20045;-60
2022/03/27 03:25:51;;;;;;;28.02;14.05;;;;;;;;;;5015480;28;20479;-62
2022/03/27 03:28:17;;;;;;;28.17;14.05;;;;;;;;;;5026491;28;20025;-61
2022/03/27 03:30:42;;;;;;;27.15;14.98;;;;;;;;;;5021357;28;20490;-60
2022/03/27 03:33:07;;;;;;;31.48;15.98;;;;;;;;;;5019704;28;20062;-59
2022/03/27 03:35:34;;;;;;;26.92;16.38;;;;;;;;;;5028316;28;20462;-60
2022/03/27 03:37:59;;;;;;;29.15;17.25;;;;;;;;;;5015706;28;20022;-61
2022/03/27 03:40:25;;;;;;;29.88;17.67;;;;;;;;;;5025193;28;20521;-62
2022/03/27 03:42:51;;;;;;;30.05;16.80;;;;;;;;;;5022593;28;20617;-60
2022/03/27 03:45:18;;;;;;;28.35;16.52;;;;;;;;;;5028613;28;20068;-63
2022/03/27 03:47:44;;;;;;;33.28;17.75;;;;;;;;;;5023197;28;20022;-63
2022/03/27 03:50:10;;;;;;;25.50;14.73;;;;;;;;;;5021933;28;20057;-60
2022/03/27 03:52:36;;;;;;;25.50;14.65;;;;;;;;;;5020009;28;20391;-63
2022/03/27 03:55:01;;;;;;;25.55;14.65;;;;;;;;;;5003361;28;20021;-60
2022/03/27 03:57:27;;;;;;;27.77;14.15;;;;;;;;;;5021458;28;20395;-61
2022/03/27 03:59:52;;;;;;;28.63;14.75;;;;;;;;;;5020810;28;20093;-60
2022/03/27 04:02:19;;;;;;;27.20;14.18;;;;;;;;;;5022717;28;20036;-62
2022/03/27 04:04:45;;;;;;;27.40;14.98;;;;;;;;;;5023433;28;20033;-60
2022/03/27 04:07:10;;;;;;;29.02;13.95;;;;;;;;;;5025109;28;20107;-62
2022/03/27 04:09:36;;;;;;;27.17;14.55;;;;;;;;;;5025143;28;20025;-60
2022/03/27 04:12:01;;;;;;;27.98;13.52;;;;;;;;;;5026275;28;20022;-60
2022/03/27 04:14:29;;;;;;;28.38;14.00;;;;;;;;;;5023836;28;20034;-63
2022/03/27 04:16:56;;;;;;;28.98;14.90;;;;;;;;;;5022986;28;20442;-60
2022/03/27 04:19:22;;;;;;;27.33;14.20;;;;;;;;;;5024593;28;20025;-61
2022/03/27 04:21:47;;;;;;;27.85;15.35;;;;;;;;;;5024835;28;20080;-60
2022/03/27 04:24:13;;;;;;;26.23;14.23;;;;;;;;;;5023011;28;20021;-60
2022/03/27 04:26:40;;;;;;;26.65;14.32;;;;;;;;;;5024737;28;20031;-60
2022/03/27 04:29:06;;;;;;;29.45;14.45;;;;;;;;;;5024495;28;20392;-63
2022/03/27 04:31:32;;;;;;;26.60;14.23;;;;;;;;;;5023033;28;20141;-61
2022/03/27 04:33:58;;;;;;;26.88;13.68;;;;;;;;;;5024973;28;20450;-62
2022/03/27 04:36:23;;;;;;;27.27;12.55;;;;;;;;;;5024035;28;20026;-61
2022/03/27 04:38:49;;;;;;;25.25;13.90;;;;;;;;;;5022739;28;20379;-61
2022/03/27 04:41:15;;;;;;;24.27;13.75;;;;;;;;;;5025125;28;20037;-63
2022/03/27 04:43:41;;;;;;;21.52;11.43;;;;;;;;;;5023591;28;20043;-60
2022/03/27 04:46:07;;;;;;;25.10;12.35;;;;;;;;;;5023416;28;20022;-61
2022/03/27 04:48:34;;;;;;;25.75;13.90;;;;;;;;;;5024551;28;20057;-62
2022/03/27 04:50:59;;;;;;;30.88;14.40;;;;;;;;;;5023131;28;20226;-60
2022/03/27 04:53:25;;;;;;;28.77;14.10;;;;;;;;;;5023540;28;20033;-63
2022/03/27 04:55:50;;;;;;;23.83;9.40;;;;;;;;;;5024603;28;20671;-63
2022/03/27 04:58:17;;;;;;;26.60;13.00;;;;;;;;;;5022776;28;20072;-62
2022/03/27 05:00:43;;;;;;;16.13;8.05;;;;;;;;;;5023913;28;20528;-63
2022/03/27 05:03:08;;;;;;;21.60;12.25;;;;;;;;;;5024409;28;20022;-61
2022/03/27 05:05:34;;;;;;;26.92;13.50;;;;;;;;;;5022505;28;20021;-63
2022/03/27 05:08:00;;;;;;;24.23;12.93;;;;;;;;;;5023573;28;20446;-60
2022/03/27 05:10:25;;;;;;;24.27;12.57;;;;;;;;;;5023588;28;20157;-60
2022/03/27 05:12:51;;;;;;;25.83;13.57;;;;;;;;;;5025212;28;20116;-63
2022/03/27 05:15:17;;;;;;;28.75;14.07;;;;;;;;;;5022241;28;20447;-62
2022/03/27 05:18:01;;;;;;;22.70;13.85;;;;;;;;;;5023361;28;20029;-62
2022/03/27 05:20:29;;;;;;;23.77;13.10;;;;;;;;;;5024880;28;20052;-64
2022/03/27 05:22:55;;;;;;;24.80;13.25;;;;;;;;;;5023968;28;20033;-63
2022/03/27 05:25:21;;;;;;;24.40;13.90;;;;;;;;;;5021154;28;20025;-61
2022/03/27 05:27:48;;;;;;;33.85;12.48;;;;;;;;;;5019408;28;20030;-64
2022/03/27 05:30:21;;;;;;;26.20;12.60;;;;;;;;;;5022644;28;20052;-60
2022/03/27 05:32:48;;;;;;;23.13;12.02;;;;;;;;;;5024132;28;20505;-63
2022/03/27 05:35:14;;;;;;;24.73;12.32;;;;;;;;;;5023270;28;20018;-63
2022/03/27 05:37:42;;;;;;;19.55;10.80;;;;;;;;;;5021212;28;20121;-60
2022/03/27 05:40:10;;;;;;;21.92;10.70;;;;;;;;;;5023606;28;20108;-64
2022/03/27 05:42:36;;;;;;;17.02;10.18;;;;;;;;;;5023637;28;20030;-60
2022/03/27 05:45:03;;;;;;;20.98;11.32;;;;;;;;;;5021802;28;20026;-63
2022/03/27 05:47:29;;;;;;;21.67;11.40;;;;;;;;;;5023257;28;20034;-61
2022/03/27 05:49:55;;;;;;;24.33;12.30;;;;;;;;;;5022756;28;20026;-63
2022/03/27 05:52:22;;;;;;;22.77;12.23;;;;;;;;;;5021319;28;20021;-63
2022/03/27 05:54:48;;;;;;;20.80;11.65;;;;;;;;;;5023568;28;20022;-62
2022/03/27 05:57:14;;;;;;;19.17;10.95;;;;;;;;;;5022612;28;20352;-61
2022/03/27 05:59:40;;;;;;;21.42;11.50;;;;;;;;;;5021619;28;20029;-62
2022/03/27 06:02:06;;;;;;;23.95;9.57;;;;;;;;;;5021576;28;20097;-64
2022/03/27 06:04:31;;;;;;;23.27;11.40;;;;;;;;;;5019091;28;20045;-63
2022/03/27 06:06:56;;;;;;;18.98;11.23;;;;;;;;;;5018102;28;20439;-62
2022/03/27 06:09:22;;;;;;;21.30;11.68;;;;;;;;;;5032791;28;20025;-60
2022/03/27 06:11:49;;;;;;;22.38;10.32;;;;;;;;;;5032465;28;20096;-63
2022/03/27 06:14:14;;;;;;;22.02;11.13;;;;;;;;;;5032539;28;20025;-62
2022/03/27 06:16:40;;;;;;;21.27;9.63;;;;;;;;;;5032469;28;20030;-62
2022/03/27 06:19:05;;;;;;;23.17;11.75;;;;;;;;;;5032242;28;20055;-64
2022/03/27 06:21:31;;;;;;;22.67;10.48;;;;;;;;;;5032591;28;20026;-63
2022/03/27 06:23:56;;;;;;;18.50;9.88;;;;;;;;;;5032378;28;20148;-63
2022/03/27 06:26:22;;;;;;;20.33;10.40;;;;;;;;;;5031881;28;20048;-63
2022/03/27 06:28:47;;;;;;;14.98;8.88;;;;;;;;;;5032117;28;20500;-63
2022/03/27 06:31:13;;;;;;;17.05;9.52;;;;;;;;;;5032211;28;20037;-63
2022/03/27 06:33:38;;;;;;;19.38;10.13;;;;;;;;;;5032219;28;20032;-61
2022/03/27 06:36:04;;;;;;;17.50;9.48;;;;;;;;;;5032199;28;20025;-64
2022/03/27 06:38:30;;;;;;;19.25;8.43;;;;;;;;;;5031985;28;20029;-62
2022/03/27 06:40:55;;;;;;;20.42;8.80;;;;;;;;;;5032062;28;20493;-62
2022/03/27 06:43:22;;;;;;;16.05;8.57;;;;;;;;;;5032117;28;20113;-62
2022/03/27 06:45:49;;;;;;;15.88;8.70;;;;;;;;;;5032010;28;20061;-63
2022/03/27 06:48:15;;;;;;;15.20;8.20;;;;;;;;;;5031895;28;20131;-61
2022/03/27 06:50:40;;;;;;;12.63;7.97;;;;;;;;;;5031683;28;20486;-63
2022/03/27 06:53:07;;;;;;;16.58;8.57;;;;;;;;;;5031935;28;20462;-63
2022/03/27 06:55:33;;;;;;;15.32;9.18;;;;;;;;;;5032071;28;20030;-63
2022/03/27 06:57:58;;;;;;;17.95;8.13;;;;;;;;;;5031802;28;20470;-63
2022/03/27 07:03:11;;;;;;;17.70;8.75;;;;;;;;;;5031896;28;20064;-62
2022/03/27 07:05:39;;;;;;;16.40;9.02;;;;;;;;;;5031832;28;20039;-63
2022/03/27 07:08:06;;;;;;;16.55;8.63;;;;;;;;;;5016856;28;20026;-61
2022/03/27 07:10:32;;;;;;;13.75;8.57;;;;;;;;;;5011975;28;20058;-63
2022/03/27 07:12:57;;;;;;;14.07;8.77;;;;;;;;;;5028389;28;20065;-60
2022/03/27 07:15:24;;;;;;;13.80;8.57;;;;;;;;;;5031608;28;20025;-62
2022/03/27 07:17:51;;;;;;;14.93;9.30;;;;;;;;;;5031270;28;20025;-61
2022/03/27 07:20:20;;;;;;;13.57;8.73;;;;;;;;;;5031720;28;20037;-61
2022/03/27 07:22:46;;;;;;;15.52;8.70;;;;;;;;;;5031653;28;20021;-61
2022/03/27 07:25:12;;;;;;;14.45;9.07;;;;;;;;;;5031552;28;20028;-63
2022/03/27 07:27:39;;;;;;;12.70;8.15;;;;;;;;;;5031522;28;20033;-63
2022/03/27 07:30:06;;;;;;;13.88;8.82;;;;;;;;;;5031328;28;20049;-64
2022/03/27 07:32:31;;;;;;;15.80;8.85;;;;;;;;;;5031297;28;20399;-64
2022/03/27 07:34:57;;;;;;;14.00;8.23;;;;;;;;;;5031493;28;20033;-61
2022/03/27 07:37:23;;;;;;;12.82;7.93;;;;;;;;;;5031779;28;20105;-64
2022/03/27 07:39:49;;;;;;;14.32;8.80;;;;;;;;;;5035371;28;20471;-64
2022/03/27 07:42:15;;;;;;;16.08;9.48;;;;;;;;;;5035435;28;20041;-65
2022/03/27 07:44:41;;;;;;;13.30;8.40;;;;;;;;;;5035323;28;20025;-64
2022/03/27 07:47:06;;;;;;;12.82;8.70;;;;;;;;;;5035286;28;20037;-63
2022/03/27 07:49:32;;;;;;;13.38;8.63;;;;;;;;;;5035020;28;20033;-63
2022/03/27 07:52:00;;;;;;;14.20;8.75;;;;;;;;;;5035187;28;20033;-61
2022/03/27 07:54:26;;;;;;;15.63;9.25;;;;;;;;;;5035224;28;20027;-63
2022/03/27 07:56:52;;;;;;;15.25;8.52;;;;;;;;;;5035162;28;20052;-63
2022/03/27 07:59:17;;;;;;;14.48;9.23;;;;;;;;;;5035346;28;20463;-62
2022/03/27 08:01:43;;;;;;;12.75;9.07;;;;;;;;;;5034878;28;20035;-64
2022/03/27 08:04:09;;;;;;;12.90;8.93;;;;;;;;;;5035094;28;20509;-63
2022/03/27 08:06:36;;;;;;;16.00;9.45;;;;;;;;;;5032467;28;20482;-62
2022/03/27 08:09:06;;;;;;;15.60;10.10;;;;;;;;;;5015004;28;20052;-63
2022/03/27 08:11:32;;;;;;;12.10;8.85;;;;;;;;;;5019756;28;20448;-64
2022/03/27 08:13:57;;;;;;;13.27;9.30;;;;;;;;;;5034790;28;20037;-64
2022/03/27 08:16:23;;;;;;;13.90;8.98;;;;;;;;;;5034367;28;20039;-65
2022/03/27 08:18:48;;;;;;;13.88;9.50;;;;;;;;;;5034893;28;20025;-65
2022/03/27 08:21:14;;;;;;;13.15;9.82;;;;;;;;;;5034771;28;20064;-65
2022/03/27 08:23:39;;;;;;;16.17;9.43;;;;;;;;;;5034330;28;20025;-61
2022/03/27 08:28:49;;;;;;;13.55;9.88;;;;;;;;;;5034888;28;20139;-61
2022/03/27 08:31:15;;;;;;;15.50;9.90;;;;;;;;;;5034862;28;20026;-63
2022/03/27 08:33:40;;;;;;;15.50;10.02;;;;;;;;;;5034899;28;20467;-64
2022/03/27 08:36:06;;;;;;;15.90;10.70;;;;;;;;;;5034505;28;20033;-64
2022/03/27 08:38:31;;;;;;;14.63;10.00;;;;;;;;;;5034683;28;20021;-61
2022/03/27 08:41:00;;;;;;;14.90;10.13;;;;;;;;;;5034552;28;20021;-62
2022/03/27 08:43:28;;;;;;;15.05;10.90;;;;;;;;;;5034727;28;20021;-63
2022/03/27 08:45:54;;;;;;;15.90;10.43;;;;;;;;;;5034353;28;20451;-64
2022/03/27 08:48:21;;;;;;;14.55;9.90;;;;;;;;;;5033646;28;20418;-63
2022/03/27 08:51:04;;;;;;;12.80;10.02;;;;;;;;;;5034301;28;20041;-62
2022/03/27 08:53:35;;;;;;;15.63;10.95;;;;;;;;;;5034115;28;20489;-62
2022/03/27 08:56:06;;;;;;;15.65;11.75;;;;;;;;;;5034119;28;20025;-64
2022/03/27 08:58:37;;;;;;;14.18;10.95;;;;;;;;;;5034070;28;20076;-60
2022/03/27 09:01:04;;;;;;;13.27;10.32;;;;;;;;;;5034091;28;20032;-62
2022/03/27 09:03:33;;;;;;;14.27;10.05;;;;;;;;;;5034211;28;20030;-61
2022/03/27 09:06:01;;;;;;;14.95;10.23;;;;;;;;;;5034111;28;20390;-62
2022/03/27 09:08:29;;;;;;;13.80;10.73;;;;;;;;;;5016418;28;20049;-63
2022/03/27 09:10:55;;;;;;;12.95;9.90;;;;;;;;;;5014307;28;20026;-60
2022/03/27 09:13:22;;;;;;;14.02;9.77;;;;;;;;;;5033555;28;20037;-61
2022/03/27 09:16:01;;;;;;;12.57;9.13;;;;;;;;;;5033810;28;20114;-61
2022/03/27 09:18:42;;;;;;;11.30;8.95;;;;;;;;;;5033643;28;20040;-61
2022/03/27 09:21:08;;;;;;;12.30;9.10;;;;;;;;;;5034085;28;20029;-62
2022/03/27 09:23:35;;;;;;;10.02;8.15;;;;;;;;;;5033923;28;20115;-61
2022/03/27 09:26:10;;;;;;;10.90;7.82;;;;;;;;;;5033929;28;20033;-60
2022/03/27 09:28:42;;;;;;;10.88;8.43;;;;;;;;;;5032876;28;20191;-61
2022/03/27 09:31:18;;;;;;;10.07;8.10;;;;;;;;;;5033593;28;20021;-63
2022/03/27 09:33:55;;;;;;;11.63;8.05;;;;;;;;;;5033260;28;20439;-60
2022/03/27 09:36:29;;;;;;;10.35;7.93;;;;;;;;;;5033761;28;20072;-60
2022/03/27 09:39:06;;;;;;;12.10;7.95;;;;;;;;;;5033818;28;20021;-60
2022/03/27 09:41:38;;;;;;;9.32;7.50;;;;;;;;;;5033684;28;20043;-61
2022/03/27 09:44:10;;;;;;;8.00;6.82;;;;;;;;;;5033207;28;20102;-62
2022/03/27 09:46:50;;;;;;;8.55;7.22;;;;;;;;;;5033209;28;20029;-62
2022/03/27 09:49:17;;;;;;;10.05;7.28;;;;;;;;;;5033289;28;20458;-60
2022/03/27 09:52:00;;;;;;;9.07;6.85;;;;;;;;;;5033273;28;20083;-62
2022/03/27 09:54:29;;;;;;;10.63;6.93;;;;;;;;;;5033056;28;20017;-63
2022/03/27 09:56:55;;;;;;;7.95;6.40;;;;;;;;;;5033138;28;20486;-61
2022/03/27 09:59:29;;;;;;;8.32;6.00;;;;;;;;;;5033049;28;20040;-63
2022/03/27 10:01:56;;;;;;;11.25;7.40;;;;;;;;;;5032541;28;20033;-64
2022/03/27 10:04:21;;;;;;;10.63;7.00;;;;;;;;;;5032983;28;20025;-62
2022/03/27 10:06:47;;;;;;;7.75;5.97;;;;;;;;;;5028877;28;20109;-62
2022/03/27 10:09:13;;;;;;;8.32;5.70;;;;;;;;;;5013129;28;20026;-63
2022/03/27 10:11:41;;;;;;;7.15;5.72;;;;;;;;;;5018475;28;20687;-61
2022/03/27 10:14:08;;;;;;;8.93;6.13;;;;;;;;;;5033069;28;20481;-64
2022/03/27 10:16:36;;;;;;;7.50;5.38;;;;;;;;;;5032885;28;20408;-63
2022/03/27 10:19:13;;;;;;;8.25;6.22;;;;;;;;;;5032260;28;20060;-62
2022/03/27 10:21:42;;;;;;;11.95;6.15;;;;;;;;;;5032717;28;20102;-63
2022/03/27 10:24:13;;;;;;;8.13;5.90;;;;;;;;;;5032676;28;20022;-64
2022/03/27 10:26:40;;;;;;;10.73;5.32;;;;;;;;;;5032246;28;20017;-61
2022/03/27 10:29:08;;;;;;;9.07;6.00;;;;;;;;;;5032158;28;20037;-64
2022/03/27 10:31:33;;;;;;;6.82;5.47;;;;;;;;;;5014930;28;20040;-62
2022/03/27 10:34:01;;;;;;;8.52;6.13;;;;;;;;;;5032688;28;20029;-63
2022/03/27 10:36:29;;;;;;;7.93;5.65;;;;;;;;;;5032092;28;20040;-62
2022/03/27 10:39:32;;;;;;;7.15;5.57;;;;;;;;;;5032592;28;20443;-64
2022/03/27 10:42:23;;;;;;;7.30;5.47;;;;;;;;;;5032060;28;20501;-61
2022/03/27 10:45:16;;;;;;;6.85;5.30;;;;;;;;;;5032563;28;20116;-63
2022/03/27 10:47:42;;;;;;;6.97;5.57;;;;;;;;;;5032409;28;20091;-62
2022/03/27 10:50:10;;;;;;;6.65;5.25;;;;;;;;;;5014983;28;20082;-61
2022/03/27 10:53:02;;;;;;;6.30;5.20;;;;;;;;;;5019851;28;20026;-63
2022/03/27 10:56:00;;;;;;;6.85;5.20;;;;;;;;;;5014534;28;20091;-62
2022/03/27 10:58:28;;;;;;;7.38;5.45;;;;;;;;;;4980627;28;20066;-63
2022/03/27 11:00:54;;;;;;;9.38;5.90;;;;;;;;;;4980368;28;20027;-63
2022/03/27 11:03:42;;;;;;;16.13;6.05;;;;;;;;;;4978978;28;20110;-63
2022/03/27 11:06:27;;;;;;;7.65;5.35;;;;;;;;;;4977166;28;20031;-64
2022/03/27 11:08:55;;;;;;;10.95;5.10;;;;;;;;;;4973449;28;20480;-62
2022/03/27 11:11:35;;;;;;;8.43;5.18;;;;;;;;;;4980270;28;20042;-63
2022/03/27 11:14:02;;;;;;;7.40;5.20;;;;;;;;;;4979865;28;20484;-63
2022/03/27 11:16:27;;;;;;;8.35;5.47;;;;;;;;;;4978695;28;20039;-61
2022/03/27 11:18:53;;;;;;;6.90;4.43;;;;;;;;;;4976214;28;20067;-63
2022/03/27 11:21:27;;;;;;;7.82;4.90;;;;;;;;;;4968276;28;20046;-60
2022/03/27 11:23:55;;;;;;;6.18;3.97;;;;;;;;;;4971145;28;20534;-63
2022/03/27 11:26:20;;;;;;;5.97;4.18;;;;;;;;;;4971543;28;20022;-60
2022/03/27 11:28:53;;;;;;;6.85;4.43;;;;;;;;;;4971343;28;20365;-60
2022/03/27 11:31:25;;;;;;;7.13;4.85;;;;;;;;;;4971472;28;20606;-61
2022/03/27 11:34:11;;;;;;;7.78;3.63;;;;;;;;;;4989371;28;20116;-60
2022/03/27 11:36:38;;;;;;;6.10;4.00;;;;;;;;;;5012547;28;20109;-61
2022/03/27 11:39:13;;;;;;;7.20;4.13;;;;;;;;;;5026883;28;20025;-61
2022/03/27 11:41:43;;;;;;;4.25;2.60;;;;;;;;;;5023244;28;20028;-60
2022/03/27 11:47:34;;;;;;;9.50;3.05;;;;;;;;;;5020661;28;20073;-64
2022/03/27 11:49:59;;;;;;;6.40;4.18;;;;;;;;;;5023541;28;20387;-62
2022/03/27 11:52:25;;;;;;;6.45;3.40;;;;;;;;;;5031649;28;20131;-60
2022/03/27 11:55:11;;;;;;;6.72;3.75;;;;;;;;;;5031919;28;20429;-59
2022/03/27 11:57:47;;;;;;;5.57;3.40;;;;;;;;;;5031750;28;20025;-63
2022/03/27 12:00:14;;;;;;;2.85;2.05;;;;;;;;;;5032076;28;20030;-61
2022/03/27 12:02:45;;;;;;;6.25;2.75;;;;;;;;;;5032102;28;20033;-62
2022/03/27 12:05:12;;;;;;;4.68;2.38;;;;;;;;;;5031880;28;20064;-63
2022/03/27 12:07:56;;;;;;;7.63;2.78;;;;;;;;;;5031171;28;20397;-64
2022/03/27 12:10:23;;;;;;;4.82;2.90;;;;;;;;;;5014634;28;20049;-63
2022/03/27 12:13:06;;;;;;;4.13;2.50;;;;;;;;;;5026723;28;20053;-62
2022/03/27 12:15:37;;;;;;;4.95;2.65;;;;;;;;;;5031707;28;20025;-63
2022/03/27 12:18:06;;;;;;;6.40;2.47;;;;;;;;;;5031728;28;20085;-61
2022/03/27 12:20:48;;;;;;;6.28;3.33;;;;;;;;;;5031951;28;20029;-61
2022/03/27 12:23:19;;;;;;;3.60;2.60;;;;;;;;;;5031905;28;20383;-63
2022/03/27 12:25:56;;;;;;;4.95;2.92;;;;;;;;;;5035500;28;20018;-62
2022/03/27 12:31:21;;;;;;;5.97;2.60;;;;;;;;;;5034684;28;20041;-62
2022/03/27 12:33:48;;;;;;;3.80;2.40;;;;;;;;;;5035267;28;20049;-63
2022/03/27 12:36:14;;;;;;;6.20;2.95;;;;;;;;;;5035091;28;20033;-63
2022/03/27 12:38:41;;;;;;;4.35;2.15;;;;;;;;;;5035301;28;20471;-60
2022/03/27 12:41:08;;;;;;;5.85;2.22;;;;;;;;;;5034770;28;20037;-63
2022/03/27 12:43:34;;;;;;;5.28;2.30;;;;;;;;;;5035086;28;20056;-63
2022/03/27 12:46:17;;;;;;;6.90;3.10;;;;;;;;;;5034913;28;20061;-63
2022/03/27 12:48:56;;;;;;;4.50;2.88;;;;;;;;;;5034853;28;20036;-63
2022/03/27 12:51:22;;;;;;;9.38;2.95;;;;;;;;;;5019549;28;20033;-64
2022/03/27 12:54:08;;;;;;;4.65;3.05;;;;;;;;;;5015145;28;20388;-63
2022/03/27 12:56:54;;;;;;;4.63;2.80;;;;;;;;;;5025395;28;20057;-63
2022/03/27 12:59:21;;;;;;;7.68;2.90;;;;;;;;;;5034034;28;20041;-61
2022/03/27 13:01:47;;;;;;;4.93;3.05;;;;;;;;;;5026029;28;20026;-63
2022/03/27 13:04:13;;;;;;;7.68;3.30;;;;;;;;;;5022693;28;20429;-63
2022/03/27 13:06:41;;;;;;;4.38;2.85;;;;;;;;;;5025047;28;20109;-60
2022/03/27 13:09:10;;;;;;;5.05;2.85;;;;;;;;;;5022262;28;20494;-62
2022/03/27 13:11:44;;;;;;;6.07;3.17;;;;;;;;;;5024537;28;20036;-63
2022/03/27 13:14:10;;;;;;;5.82;2.60;;;;;;;;;;5022277;28;20030;-63
2022/03/27 13:16:47;;;;;;;6.60;3.10;;;;;;;;;;5022997;28;20118;-61
2022/03/27 13:19:18;;;;;;;4.57;2.50;;;;;;;;;;5023463;28;20495;-61
2022/03/27 13:21:54;;;;;;;3.92;2.60;;;;;;;;;;5022237;28;20042;-62
2022/03/27 13:24:22;;;;;;;7.35;3.50;;;;;;;;;;5022605;28;20464;-63
2022/03/27 13:27:00;;;;;;;7.03;2.80;;;;;;;;;;5022346;28;20114;-63
2022/03/27 13:29:27;;;;;;;8.23;3.25;;;;;;;;;;5023399;28;20034;-60
2022/03/27 13:31:53;;;;;;;7.68;3.10;;;;;;;;;;5021482;28;20029;-60
2022/03/27 13:34:19;;;;;;;6.65;3.88;;;;;;;;;;5023119;28;20621;-63
2022/03/27 13:36:46;;;;;;;5.10;2.50;;;;;;;;;;5023350;28;20481;-60
2022/03/27 13:39:13;;;;;;;10.40;7.28;;;;;;;;;;5021861;28;20534;-59
2022/03/27 13:44:25;;;;;;;5.15;2.17;;;;;;;;;;5023497;28;20463;-61
2022/03/27 13:46:51;;;;;;;5.50;2.35;;;;;;;;;;5021552;28;20022;-60
2022/03/27 13:49:18;;;;;;;5.60;2.20;;;;;;;;;;5021675;28;20033;-61
2022/03/27 13:51:44;;;;;;;5.10;2.70;;;;;;;;;;5023532;28;20060;-61
2022/03/27 13:54:10;;;;;;;8.60;3.38;;;;;;;;;;5022015;28;20458;-62
2022/03/27 13:56:38;;;;;;;5.22;2.38;;;;;;;;;;5022101;28;20101;-62
2022/03/27 13:59:05;;;;;;;4.03;2.25;;;;;;;;;;5023489;28;20033;-61
2022/03/27 14:01:33;;;;;;;5.88;3.15;;;;;;;;;;5022503;28;20030;-63
2022/03/27 14:03:58;;;;;;;7.53;2.92;;;;;;;;;;5021766;28;20058;-59
2022/03/27 14:06:24;;;;;;;4.55;2.88;;;;;;;;;;5021733;28;20522;-62
2022/03/27 14:08:49;;;;;;;7.30;2.85;;;;;;;;;;5023469;28;20017;-61
2022/03/27 14:11:17;;;;;;;5.57;2.60;;;;;;;;;;5022863;28;20024;-60
2022/03/27 14:13:42;;;;;;;7.30;4.25;;;;;;;;;;5021812;28;20487;-60
2022/03/27 14:16:08;;;;;;;4.88;3.40;;;;;;;;;;5022777;28;20116;-62
2022/03/27 14:18:34;;;;;;;7.32;3.22;;;;;;;;;;5021352;28;20029;-59
2022/03/27 14:21:00;;;;;;;5.57;2.97;;;;;;;;;;5022268;28;20029;-59
2022/03/27 14:23:25;;;;;;;4.88;2.70;;;;;;;;;;5023085;28;20441;-62
2022/03/27 14:25:51;;;;;;;5.88;3.17;;;;;;;;;;5026680;28;20025;-59
2022/03/27 14:28:16;;;;;;;4.72;2.50;;;;;;;;;;5029861;28;20412;-61
2022/03/27 14:30:42;;;;;;;4.85;2.60;;;;;;;;;;5022789;28;20029;-63
2022/03/27 14:33:07;;;;;;;5.90;2.47;;;;;;;;;;5021550;28;20037;-61
2022/03/27 14:35:34;;;;;;;6.03;2.10;;;;;;;;;;5020409;28;20046;-62
2022/03/27 14:38:00;;;;;;;6.22;2.65;;;;;;;;;;5022526;28;20083;-60
2022/03/27 14:40:26;;;;;;;4.80;2.50;;;;;;;;;;5021124;28;20026;-63
2022/03/27 14:42:51;;;;;;;5.00;2.30;;;;;;;;;;5020539;28;20029;-66
2022/03/27 14:45:17;;;;;;;4.68;2.40;;;;;;;;;;5026288;28;20025;-62
2022/03/27 14:47:43;;;;;;;5.30;2.30;;;;;;;;;;5027199;28;20207;-63
2022/03/27 14:50:12;;;;;;;4.20;2.17;;;;;;;;;;5032667;28;20026;-65
2022/03/27 14:52:39;;;;;;;4.53;2.13;;;;;;;;;;5032912;28;20449;-64